createdAt,value
2023-04-08T00:02:25.282Z,7.13
2023-04-08T00:04:52.344Z,6.70
2023-04-08T00:07:19.800Z,9.00
2023-04-08T00:09:46.719Z,7.87
2023-04-08T00:12:15.878Z,6.50
2023-04-08T00:14:42.855Z,5.60
2023-04-08T00:17:10.361Z,7.87
2023-04-08T00:19:37.808Z,6.00
2023-04-08T00:22:05.518Z,6.33
2023-04-08T00:24:32.582Z,5.70
2023-04-08T00:27:00.034Z,5.90
2023-04-08T00:29:28.354Z,6.20
2023-04-08T00:31:55.324Z,6.10
2023-04-08T00:34:22.303Z,6.10
2023-04-08T00:36:49.402Z,6.70
2023-04-08T00:39:17.010Z,6.00
2023-04-08T00:41:44.841Z,6.03
2023-04-08T00:44:11.978Z,5.67
2023-04-08T00:46:41.597Z,6.80
2023-04-08T00:49:11.970Z,6.83
2023-04-08T00:51:39.239Z,5.93
2023-04-08T00:54:08.626Z,6.00
2023-04-08T00:56:36.880Z,6.77
2023-04-08T00:59:05.849Z,6.03
2023-04-08T01:01:45.432Z,7.50
2023-04-08T01:04:25.022Z,7.53
2023-04-08T01:06:59.172Z,6.17
2023-04-08T01:09:33.615Z,7.60
2023-04-08T01:12:06.528Z,5.70
2023-04-08T01:14:39.901Z,8.40
2023-04-08T01:17:10.015Z,7.30
2023-04-08T01:19:42.751Z,7.03
2023-04-08T01:22:22.644Z,6.90
2023-04-08T01:24:52.856Z,6.97
2023-04-08T01:27:21.870Z,7.13
2023-04-08T01:29:49.974Z,7.67
2023-04-08T01:32:18.471Z,7.93
2023-04-08T01:34:46.017Z,7.10
2023-04-08T01:37:15.375Z,10.40
2023-04-08T01:39:43.469Z,7.07
2023-04-08T01:42:11.497Z,8.33
2023-04-08T01:44:41.804Z,7.40
2023-04-08T01:47:10.762Z,6.73
2023-04-08T01:49:38.468Z,7.37
2023-04-08T01:52:10.198Z,6.43
2023-04-08T01:54:37.914Z,6.27
2023-04-08T01:57:08.896Z,6.70
2023-04-08T01:59:41.046Z,7.63
2023-04-08T02:02:10.563Z,7.33
2023-04-08T02:04:38.381Z,7.37
2023-04-08T02:07:06.366Z,7.43
2023-04-08T02:09:35.015Z,7.43
2023-04-08T02:12:02.618Z,7.20
2023-04-08T02:14:30.059Z,7.83
2023-04-08T02:17:06.780Z,6.40
2023-04-08T02:19:41.816Z,7.03
2023-04-08T02:22:18.599Z,6.10
2023-04-08T02:24:47.213Z,7.20
2023-04-08T02:27:15.982Z,7.33
2023-04-08T02:29:43.252Z,8.10
2023-04-08T02:32:12.642Z,7.83
2023-04-08T02:34:41.900Z,8.00
2023-04-08T02:37:10.322Z,8.50
2023-04-08T02:39:37.450Z,7.47
2023-04-08T02:42:06.186Z,7.53
2023-04-08T02:44:35.340Z,7.40
2023-04-08T02:47:03.195Z,8.47
2023-04-08T02:49:31.739Z,6.93
2023-04-08T02:51:58.891Z,7.20
2023-04-08T02:54:26.702Z,7.10
2023-04-08T02:56:53.771Z,8.33
2023-04-08T02:59:20.858Z,9.43
2023-04-08T03:01:48.649Z,7.47
2023-04-08T03:04:15.909Z,7.80
2023-04-08T03:06:45.029Z,8.40
2023-04-08T03:09:12.611Z,9.27
2023-04-08T03:11:39.728Z,8.30
2023-04-08T03:14:07.279Z,8.07
2023-04-08T03:16:34.432Z,8.60
2023-04-08T03:19:02.077Z,8.27
2023-04-08T03:21:31.610Z,8.80
2023-04-08T03:24:00.327Z,8.40
2023-04-08T03:26:27.938Z,8.40
2023-04-08T03:28:55.596Z,9.57
2023-04-08T03:31:23.012Z,8.93
2023-04-08T03:33:50.743Z,9.27
2023-04-08T03:36:17.922Z,8.07
2023-04-08T03:38:45.341Z,7.77
2023-04-08T03:41:14.426Z,8.63
2023-04-08T03:43:42.032Z,8.67
2023-04-08T03:46:09.300Z,7.60
2023-04-08T03:48:37.029Z,7.80
2023-04-08T03:51:04.301Z,7.80
2023-04-08T03:53:32.122Z,8.33
2023-04-08T03:56:03.494Z,7.80
2023-04-08T03:58:32.668Z,8.20
2023-04-08T04:00:59.811Z,9.90
2023-04-08T04:03:27.969Z,8.67
2023-04-08T04:05:57.516Z,8.33
2023-04-08T04:08:25.219Z,8.27
2023-04-08T04:10:52.887Z,7.83
2023-04-08T04:13:20.054Z,8.60
2023-04-08T04:15:49.358Z,8.63
2023-04-08T04:18:17.192Z,8.53
2023-04-08T04:20:44.704Z,8.87
2023-04-08T04:23:11.852Z,9.43
2023-04-08T04:25:41.989Z,8.17
2023-04-08T04:28:10.076Z,9.30
2023-04-08T04:30:38.721Z,9.10
2023-04-08T04:33:07.719Z,9.00
2023-04-08T04:35:35.520Z,8.70
2023-04-08T04:38:02.748Z,9.37
2023-04-08T04:43:14.502Z,10.00
2023-04-08T04:45:42.368Z,9.40
2023-04-08T04:48:11.094Z,9.80
2023-04-08T04:50:38.179Z,8.73
2023-04-08T04:53:05.991Z,9.63
2023-04-08T04:55:33.120Z,9.50
2023-04-08T04:58:00.354Z,9.60
2023-04-08T05:00:27.912Z,9.60
2023-04-08T05:02:55.196Z,9.00
2023-04-08T05:05:23.842Z,9.03
2023-04-08T05:07:51.226Z,9.33
2023-04-08T05:10:18.703Z,8.77
2023-04-08T05:12:45.900Z,9.30
2023-04-08T05:15:13.183Z,10.30
2023-04-08T05:17:40.469Z,9.93
2023-04-08T05:20:09.275Z,9.93
2023-04-08T05:22:37.849Z,9.30
2023-04-08T05:25:06.919Z,9.90
2023-04-08T05:27:33.971Z,10.57
2023-04-08T05:30:01.572Z,10.77
2023-04-08T05:32:30.631Z,10.10
2023-04-08T05:34:58.400Z,10.77
2023-04-08T05:37:26.374Z,10.50
2023-04-08T05:39:54.841Z,10.10
2023-04-08T05:42:22.584Z,10.87
2023-04-08T05:44:50.135Z,12.00
2023-04-08T05:47:17.314Z,10.20
2023-04-08T05:49:44.886Z,10.70
2023-04-08T05:52:11.921Z,11.30
2023-04-08T05:54:39.543Z,11.30
2023-04-08T05:59:53.896Z,10.67
2023-04-08T06:02:23.451Z,11.23
2023-04-08T06:04:51.078Z,11.63
2023-04-08T06:07:18.360Z,12.47
2023-04-08T06:09:45.651Z,12.10
2023-04-08T06:12:14.334Z,11.70
2023-04-08T06:14:44.314Z,12.80
2023-04-08T06:17:11.806Z,11.47
2023-04-08T06:19:38.943Z,13.17
2023-04-08T06:22:06.255Z,10.93
2023-04-08T06:24:34.048Z,11.83
2023-04-08T06:27:01.726Z,13.00
2023-04-08T06:29:30.348Z,11.63
2023-04-08T06:31:58.118Z,11.97
2023-04-08T06:34:25.461Z,12.73
2023-04-08T06:36:52.686Z,13.70
2023-04-08T06:39:21.394Z,11.00
2023-04-08T06:41:56.540Z,11.50
2023-04-08T06:44:24.079Z,13.63
2023-04-08T06:46:52.853Z,11.37
2023-04-08T06:49:20.249Z,12.60
2023-04-08T06:51:47.380Z,11.23
2023-04-08T06:54:14.828Z,13.10
2023-04-08T06:56:41.984Z,12.20
2023-04-08T06:59:09.858Z,12.30
2023-04-08T07:01:37.372Z,12.30
2023-04-08T07:04:06.710Z,11.60
2023-04-08T07:06:34.372Z,12.33
2023-04-08T07:09:01.489Z,11.50
2023-04-08T07:11:28.660Z,12.50
2023-04-08T07:13:55.943Z,12.67
2023-04-08T07:16:23.237Z,12.30
2023-04-08T07:18:52.342Z,11.30
2023-04-08T07:21:21.287Z,12.50
2023-04-08T07:23:48.688Z,13.20
2023-04-08T07:26:15.879Z,11.80
2023-04-08T07:28:43.538Z,11.77
2023-04-08T07:31:13.102Z,11.20
2023-04-08T07:33:40.404Z,12.03
2023-04-08T07:36:08.970Z,11.70
2023-04-08T07:38:37.890Z,12.03
2023-04-08T07:41:05.815Z,11.83
2023-04-08T07:43:37.673Z,11.53
2023-04-08T07:46:06.409Z,11.13
2023-04-08T07:48:34.801Z,10.53
2023-04-08T07:51:09.610Z,11.00
2023-04-08T07:53:40.714Z,10.97
2023-04-08T07:56:12.557Z,12.07
2023-04-08T07:58:43.617Z,11.73
2023-04-08T08:01:19.046Z,12.60
2023-04-08T08:03:47.687Z,11.00
2023-04-08T08:06:15.550Z,12.67
2023-04-08T08:08:44.684Z,11.90
2023-04-08T08:11:12.306Z,11.20
2023-04-08T08:13:39.571Z,12.37
2023-04-08T08:16:09.460Z,11.80
2023-04-08T08:18:37.066Z,12.03
2023-04-08T08:21:04.609Z,16.70
2023-04-08T08:23:32.003Z,12.30
2023-04-08T08:26:10.179Z,11.60
2023-04-08T08:28:38.039Z,12.20
2023-04-08T08:31:06.208Z,11.90
2023-04-08T08:33:34.005Z,10.87
2023-04-08T08:36:01.739Z,12.00
2023-04-08T08:38:29.017Z,11.00
2023-04-08T08:40:57.269Z,11.40
2023-04-08T08:43:26.696Z,11.10
2023-04-08T08:45:54.830Z,12.00
2023-04-08T08:48:22.409Z,10.53
2023-04-08T08:50:49.704Z,11.77
2023-04-08T08:53:16.945Z,10.13
2023-04-08T08:56:13.479Z,11.83
2023-04-08T08:58:33.745Z,11.93
2023-04-08T09:01:01.116Z,11.00
2023-04-08T09:06:18.955Z,10.67
2023-04-08T09:08:47.001Z,11.30
2023-04-08T09:11:17.047Z,11.87
2023-04-08T09:13:46.918Z,11.60
2023-04-08T09:16:17.978Z,10.90
2023-04-08T09:18:49.426Z,10.60
2023-04-08T09:21:18.500Z,11.27
2023-04-08T09:23:49.096Z,11.10
2023-04-08T09:26:18.248Z,10.57
2023-04-08T09:29:05.841Z,11.17
2023-04-08T09:31:47.304Z,10.70
2023-04-08T09:34:17.992Z,11.00
2023-04-08T09:36:45.788Z,10.20
2023-04-08T09:39:16.491Z,11.07
2023-04-08T09:41:45.534Z,10.50
2023-04-08T09:44:22.216Z,9.90
2023-04-08T09:46:59.895Z,10.50
2023-04-08T09:49:30.263Z,10.17
2023-04-08T09:52:07.782Z,11.33
2023-04-08T09:54:49.632Z,26.73
2023-04-08T09:57:23.180Z,11.37
2023-04-08T10:00:00.530Z,11.70
2023-04-08T10:02:34.473Z,10.90
2023-04-08T10:05:06.224Z,10.73
2023-04-08T10:07:36.216Z,9.70
2023-04-08T10:10:05.054Z,9.03
2023-04-08T10:12:32.453Z,10.23
2023-04-08T10:15:28.386Z,10.80
2023-04-08T10:18:18.646Z,9.63
2023-04-08T10:20:49.554Z,9.83
2023-04-08T10:23:18.455Z,9.90
2023-04-08T10:25:48.255Z,10.13
2023-04-08T10:28:27.062Z,9.23
2023-04-08T10:30:58.108Z,10.80
2023-04-08T10:33:34.633Z,9.60
2023-04-08T10:36:12.160Z,10.27
2023-04-08T10:38:40.123Z,10.10
2023-04-08T10:41:08.041Z,8.60
2023-04-08T10:43:36.631Z,10.77
2023-04-08T10:46:05.605Z,8.90
2023-04-08T10:48:33.322Z,8.80
2023-04-08T10:51:02.593Z,8.87
2023-04-08T10:53:31.233Z,8.63
2023-04-08T10:56:09.030Z,9.13
2023-04-08T10:58:37.058Z,8.53
2023-04-08T11:01:07.166Z,7.90
2023-04-08T11:03:36.350Z,7.60
2023-04-08T11:06:04.278Z,8.00
2023-04-08T11:08:33.304Z,8.57
2023-04-08T11:11:11.230Z,8.00
2023-04-08T11:13:52.080Z,8.60
2023-04-08T11:16:23.092Z,7.90
2023-04-08T11:18:51.519Z,8.07
2023-04-08T11:21:18.819Z,8.30
2023-04-08T11:23:46.873Z,7.73
2023-04-08T11:26:15.488Z,8.17
2023-04-08T11:28:43.407Z,8.07
2023-04-08T11:31:11.624Z,8.00
2023-04-08T11:33:47.566Z,7.30
2023-04-08T11:36:15.587Z,8.00
2023-04-08T11:38:42.809Z,7.13
2023-04-08T11:41:12.481Z,7.93
2023-04-08T11:43:41.598Z,8.03
2023-04-08T11:46:12.777Z,7.03
2023-04-08T11:48:41.889Z,7.60
2023-04-08T11:51:09.756Z,7.00
2023-04-08T11:53:39.913Z,8.47
2023-04-08T11:56:17.752Z,6.40
2023-04-08T11:58:46.428Z,6.53
2023-04-08T12:01:15.946Z,6.47
2023-04-08T12:03:57.759Z,6.93
2023-04-08T12:06:27.472Z,7.27
2023-04-08T12:08:56.650Z,6.67
2023-04-08T12:11:24.785Z,6.60
2023-04-08T12:13:53.117Z,6.00
2023-04-08T12:16:21.316Z,6.53
2023-04-08T12:18:49.401Z,6.43
2023-04-08T12:21:18.095Z,5.40
2023-04-08T12:23:45.329Z,5.83
2023-04-08T12:26:13.715Z,6.43
2023-04-08T12:28:41.035Z,5.87
2023-04-08T12:31:08.460Z,5.57
2023-04-08T12:33:35.847Z,6.40
2023-04-08T12:36:03.396Z,6.30
2023-04-08T12:38:33.465Z,5.60
2023-04-08T12:41:00.901Z,6.33
2023-04-08T12:43:28.130Z,7.13
2023-04-08T12:45:55.931Z,6.80
2023-04-08T12:48:23.058Z,5.67
2023-04-08T12:53:37.312Z,5.90
2023-04-08T12:56:05.255Z,6.23
2023-04-08T12:58:32.493Z,7.07
2023-04-08T13:01:02.088Z,6.97
2023-04-08T13:03:31.996Z,6.43
2023-04-08T13:05:59.738Z,6.23
2023-04-08T13:08:26.931Z,7.77
2023-04-08T13:10:55.994Z,8.67
2023-04-08T13:13:23.319Z,7.63
2023-04-08T13:15:50.952Z,6.33
2023-04-08T13:18:18.394Z,7.60
2023-04-08T13:20:46.508Z,6.57
2023-04-08T13:23:18.182Z,8.57
2023-04-08T13:25:45.681Z,7.70
2023-04-08T13:28:15.116Z,7.67
2023-04-08T13:30:42.590Z,6.47
2023-04-08T13:33:09.782Z,6.90
2023-04-08T13:35:36.929Z,7.30
2023-04-08T13:38:07.201Z,7.27
2023-04-08T13:40:34.854Z,7.03
2023-04-08T13:43:02.368Z,6.87
2023-04-08T13:45:31.169Z,7.00
2023-04-08T13:47:59.729Z,7.07
2023-04-08T13:50:27.705Z,7.20
2023-04-08T13:52:54.868Z,5.50
2023-04-08T13:55:22.759Z,5.13
2023-04-08T13:57:49.930Z,6.27
2023-04-08T14:00:17.477Z,5.50
2023-04-08T14:02:46.668Z,5.10
2023-04-08T14:05:14.414Z,4.70
2023-04-08T14:07:41.481Z,5.03
2023-04-08T14:10:10.627Z,5.77
2023-04-08T14:12:37.847Z,5.83
2023-04-08T14:15:06.251Z,5.10
2023-04-08T14:17:35.052Z,5.40
2023-04-08T14:20:06.985Z,6.30
2023-04-08T14:22:35.926Z,4.90
2023-04-08T14:25:04.208Z,5.50
2023-04-08T14:27:31.992Z,6.70
2023-04-08T14:29:59.137Z,5.97
2023-04-08T14:32:26.605Z,6.63
2023-04-08T14:34:54.521Z,5.83
2023-04-08T14:37:23.432Z,6.43
2023-04-08T14:39:50.705Z,5.47
2023-04-08T14:42:18.420Z,5.50
2023-04-08T14:44:45.797Z,4.47
2023-04-08T14:47:12.967Z,3.93
2023-04-08T14:49:40.481Z,5.03
2023-04-08T14:52:08.154Z,5.10
2023-04-08T14:54:38.904Z,5.80
2023-04-08T14:57:06.679Z,4.80
2023-04-08T14:59:33.783Z,5.33
2023-04-08T15:02:01.494Z,12.87
2023-04-08T15:04:29.178Z,6.57
2023-04-08T15:06:56.518Z,6.00
2023-04-08T15:09:24.256Z,5.77
2023-04-08T15:11:56.949Z,5.90
2023-04-08T15:14:24.144Z,6.27
2023-04-08T15:16:52.147Z,5.40
2023-04-08T15:19:20.733Z,5.00
2023-04-08T15:21:47.918Z,5.07
2023-04-08T15:24:15.341Z,5.73
2023-04-08T15:26:43.109Z,6.47
2023-04-08T15:29:11.764Z,6.80
2023-04-08T15:31:39.727Z,5.57
2023-04-08T15:34:07.509Z,5.20
2023-04-08T15:36:37.520Z,5.43
2023-04-08T15:39:05.070Z,5.90
2023-04-08T15:41:32.488Z,4.93
2023-04-08T15:43:59.665Z,4.83
2023-04-08T15:46:28.735Z,5.10
2023-04-08T15:48:56.266Z,4.77
2023-04-08T15:51:27.457Z,5.10
2023-04-08T15:53:55.051Z,4.80
2023-04-08T15:56:22.383Z,4.53
2023-04-08T15:58:50.244Z,4.10
2023-04-08T16:01:18.725Z,4.27
2023-04-08T16:03:50.044Z,4.77
2023-04-08T16:06:17.223Z,4.57
2023-04-08T16:08:46.874Z,6.80
2023-04-08T16:11:14.476Z,5.83
2023-04-08T16:13:42.500Z,5.00
2023-04-08T16:16:13.209Z,4.23
2023-04-08T16:18:42.251Z,4.60
2023-04-08T16:21:11.392Z,4.07
2023-04-08T16:23:38.794Z,4.43
2023-04-08T16:26:07.916Z,4.43
2023-04-08T16:28:35.431Z,4.67
2023-04-08T16:31:04.361Z,5.03
2023-04-08T16:33:32.729Z,3.70
2023-04-08T16:36:01.442Z,4.37
2023-04-08T16:38:30.091Z,5.03
2023-04-08T16:41:01.627Z,4.27
2023-04-08T16:43:29.980Z,5.97
2023-04-08T16:48:44.349Z,4.57
2023-04-08T16:51:11.890Z,4.43
2023-04-08T16:53:41.246Z,4.83
2023-04-08T16:56:14.425Z,5.40
2023-04-08T16:58:41.841Z,4.70
2023-04-08T17:01:09.601Z,4.30
2023-04-08T17:03:37.858Z,4.73
2023-04-08T17:06:08.551Z,4.43
2023-04-08T17:08:35.764Z,5.23
2023-04-08T17:11:10.309Z,4.33
2023-04-08T17:13:38.534Z,4.70
2023-04-08T17:16:07.307Z,4.57
2023-04-08T17:18:34.563Z,4.73
2023-04-08T17:21:01.801Z,5.20
2023-04-08T17:23:28.975Z,4.67
2023-04-08T17:25:56.114Z,4.83
2023-04-08T17:28:25.406Z,5.03
2023-04-08T17:30:52.636Z,10.70
2023-04-08T17:33:19.701Z,6.13
2023-04-08T17:35:47.320Z,5.10
2023-04-08T17:38:14.526Z,5.00
2023-04-08T17:40:41.696Z,5.07
2023-04-08T17:43:09.012Z,5.57
2023-04-08T17:45:37.791Z,5.33
2023-04-08T17:48:07.464Z,5.40
2023-04-08T17:50:39.120Z,6.23
2023-04-08T17:53:06.784Z,5.63
2023-04-08T17:55:33.948Z,5.10
2023-04-08T17:58:02.251Z,5.00
2023-04-08T18:00:30.338Z,5.70
2023-04-08T18:02:59.124Z,5.30
2023-04-08T18:05:27.777Z,6.00
2023-04-08T18:07:54.893Z,4.90
2023-04-08T18:10:24.174Z,5.43
2023-04-08T18:13:00.596Z,5.20
2023-04-08T18:15:38.172Z,6.23
2023-04-08T18:18:07.166Z,5.90
2023-04-08T18:20:35.907Z,6.07
2023-04-08T18:23:06.358Z,5.43
2023-04-08T18:25:34.588Z,6.00
2023-04-08T18:28:01.991Z,7.07
2023-04-08T18:30:30.284Z,6.27
2023-04-08T18:32:57.424Z,6.20
2023-04-08T18:35:26.222Z,6.40
2023-04-08T18:37:53.197Z,5.93
2023-04-08T18:40:21.060Z,6.30
2023-04-08T18:42:48.368Z,5.53
2023-04-08T18:45:16.260Z,6.47
2023-04-08T18:47:43.988Z,6.47
2023-04-08T18:50:11.235Z,5.93
2023-04-08T18:52:40.816Z,6.60
2023-04-08T18:55:08.429Z,6.80
2023-04-08T18:57:36.357Z,5.90
2023-04-08T19:00:04.509Z,6.13
2023-04-08T19:02:32.576Z,5.80
2023-04-08T19:04:59.751Z,7.73
2023-04-08T19:07:27.474Z,6.57
2023-04-08T19:09:58.550Z,6.33
2023-04-08T19:12:27.110Z,7.07
2023-04-08T19:14:54.420Z,7.10
2023-04-08T19:17:22.131Z,5.63
2023-04-08T19:19:49.777Z,5.47
2023-04-08T19:22:17.063Z,5.33
2023-04-08T19:24:45.089Z,3.70
2023-04-08T19:27:17.187Z,4.60
2023-04-08T19:29:44.781Z,4.07
2023-04-08T19:32:12.542Z,4.53
2023-04-08T19:34:42.386Z,4.50
2023-04-08T19:37:09.876Z,4.60
2023-04-08T19:39:37.118Z,3.73
2023-04-08T19:42:05.442Z,3.93
2023-04-08T19:44:34.981Z,4.10
2023-04-08T19:47:03.153Z,4.20
2023-04-08T19:49:30.993Z,3.97
2023-04-08T19:51:59.308Z,4.07
2023-04-08T19:54:26.732Z,4.20
2023-04-08T19:56:54.061Z,4.17
2023-04-08T19:59:24.305Z,4.27
2023-04-08T20:01:52.987Z,3.70
2023-04-08T20:04:20.508Z,3.97
2023-04-08T20:06:48.697Z,4.80
2023-04-08T20:09:18.155Z,3.97
2023-04-08T20:11:47.409Z,4.03
2023-04-08T20:14:14.701Z,4.00
2023-04-08T20:16:41.829Z,4.53
2023-04-08T20:19:10.326Z,5.90
2023-04-08T20:21:37.836Z,4.20
2023-04-08T20:24:07.703Z,6.27
2023-04-08T20:26:35.746Z,4.00
2023-04-08T20:29:03.199Z,3.90
2023-04-08T20:31:32.182Z,4.13
2023-04-08T20:34:00.235Z,4.17
2023-04-08T20:36:28.733Z,4.70
2023-04-08T20:38:59.199Z,3.90
2023-04-08T20:41:27.439Z,4.10
2023-04-08T20:43:55.172Z,4.33
2023-04-08T20:46:22.820Z,4.20
2023-04-08T20:48:50.396Z,4.50
2023-04-08T20:51:18.316Z,5.13
2023-04-08T20:53:46.851Z,4.20
2023-04-08T20:56:14.066Z,4.80
2023-04-08T20:58:41.626Z,4.27
2023-04-08T21:01:08.855Z,4.00
2023-04-08T21:03:36.217Z,4.60
2023-04-08T21:06:03.404Z,4.17
2023-04-08T21:08:31.073Z,4.50
2023-04-08T21:11:03.452Z,4.10
2023-04-08T21:13:31.765Z,4.70
2023-04-08T21:15:59.385Z,4.10
2023-04-08T21:18:26.746Z,5.20
2023-04-08T21:20:54.354Z,4.57
2023-04-08T21:23:21.469Z,4.60
2023-04-08T21:25:48.736Z,4.60
2023-04-08T21:28:17.294Z,4.20
2023-04-08T21:30:44.608Z,4.67
2023-04-08T21:33:11.921Z,3.80
2023-04-08T21:35:39.537Z,4.00
2023-04-08T21:38:06.707Z,4.37
2023-04-08T21:40:34.226Z,5.37
2023-04-08T21:43:01.369Z,4.50
2023-04-08T21:45:30.043Z,4.40
2023-04-08T21:47:57.541Z,3.97
2023-04-08T21:50:24.843Z,4.70
2023-04-08T21:52:52.554Z,4.60
2023-04-08T21:55:19.915Z,4.87
2023-04-08T21:57:48.794Z,5.00
2023-04-08T22:00:16.798Z,4.37
2023-04-08T22:02:45.574Z,6.70
2023-04-08T22:05:13.435Z,5.07
2023-04-08T22:07:43.595Z,4.73
2023-04-08T22:10:12.198Z,5.43
2023-04-08T22:12:39.953Z,4.93
2023-04-08T22:15:09.065Z,4.30
2023-04-08T22:17:36.349Z,5.03
2023-04-08T22:20:08.917Z,4.50
2023-04-08T22:22:36.439Z,3.63
2023-04-08T22:25:04.681Z,4.23
2023-04-08T22:27:32.536Z,4.57
2023-04-08T22:30:02.462Z,3.93
2023-04-08T22:32:29.601Z,4.90
2023-04-08T22:34:57.320Z,4.23
2023-04-08T22:37:28.425Z,3.30
2023-04-08T22:39:55.608Z,4.80
2023-04-08T22:42:23.179Z,4.40
2023-04-08T22:44:50.549Z,4.20
2023-04-08T22:47:18.450Z,4.60
2023-04-08T22:49:46.157Z,5.33
2023-04-08T22:52:13.708Z,4.77
2023-04-08T22:54:42.286Z,5.00
2023-04-08T22:57:10.016Z,16.80
2023-04-08T22:59:37.621Z,19.90
2023-04-08T23:02:04.912Z,8.30
2023-04-08T23:04:32.613Z,5.70
2023-04-08T23:06:59.774Z,4.67
2023-04-08T23:09:27.589Z,4.60
2023-04-08T23:11:56.029Z,4.93
2023-04-08T23:14:23.433Z,3.57
2023-04-08T23:19:38.157Z,4.40
2023-04-08T23:22:05.546Z,3.63
2023-04-08T23:24:34.546Z,6.40
2023-04-08T23:27:04.366Z,4.80
2023-04-08T23:29:31.755Z,6.97
2023-04-08T23:31:59.468Z,5.37
2023-04-08T23:34:27.343Z,5.10
2023-04-08T23:36:57.703Z,5.40
2023-04-08T23:39:25.405Z,5.20
2023-04-08T23:41:52.874Z,4.87
2023-04-08T23:44:21.637Z,4.60
2023-04-08T23:46:51.632Z,3.83
2023-04-08T23:49:19.046Z,5.00
2023-04-08T23:51:46.610Z,4.50
2023-04-08T23:54:13.784Z,5.37
2023-04-08T23:56:42.252Z,4.33
2023-04-08T23:59:09.886Z,5.10
